sensor_id;sensor_type;location;lat;lon;timestamp;P1;durP1;ratioP1;P2;durP2;ratioP2
51566;SDS011;37657;53.182;5.638;2024-02-21T00:02:11;12.23;;;4.90;;
51566;SDS011;37657;53.182;5.638;2024-02-21T00:04:36;27.58;;;6.88;;
51566;SDS011;37657;53.182;5.638;2024-02-21T00:07:03;11.95;;;5.07;;
51566;SDS011;37657;53.182;5.638;2024-02-21T00:09:29;12.23;;;5.65;;
51566;SDS011;37657;53.182;5.638;2024-02-21T00:11:55;19.50;;;6.72;;
51566;SDS011;37657;53.182;5.638;2024-02-21T00:14:21;19.13;;;6.20;;
51566;SDS011;37657;53.182;5.638;2024-02-21T00:16:46;15.13;;;5.97;;
51566;SDS011;37657;53.182;5.638;2024-02-21T00:19:12;10.50;;;4.40;;
51566;SDS011;37657;53.182;5.638;2024-02-21T00:21:39;14.20;;;6.70;;
51566;SDS011;37657;53.182;5.638;2024-02-21T00:24:05;21.65;;;7.30;;
51566;SDS011;37657;53.182;5.638;2024-02-21T00:26:31;23.70;;;6.03;;
51566;SDS011;37657;53.182;5.638;2024-02-21T00:28:56;13.32;;;6.20;;
51566;SDS011;37657;53.182;5.638;2024-02-21T00:31:22;10.50;;;5.50;;
51566;SDS011;37657;53.182;5.638;2024-02-21T00:33:48;14.57;;;4.97;;
51566;SDS011;37657;53.182;5.638;2024-02-21T00:36:13;12.93;;;5.55;;
51566;SDS011;37657;53.182;5.638;2024-02-21T00:38:40;18.33;;;5.72;;
51566;SDS011;37657;53.182;5.638;2024-02-21T00:41:06;13.15;;;5.10;;
51566;SDS011;37657;53.182;5.638;2024-02-21T00:43:31;9.45;;;5.20;;
51566;SDS011;37657;53.182;5.638;2024-02-21T00:45:57;12.18;;;6.68;;
51566;SDS011;37657;53.182;5.638;2024-02-21T00:48:22;11.75;;;5.93;;
51566;SDS011;37657;53.182;5.638;2024-02-21T00:50:48;8.95;;;5.40;;
51566;SDS011;37657;53.182;5.638;2024-02-21T00:53:14;16.90;;;5.82;;
51566;SDS011;37657;53.182;5.638;2024-02-21T00:55:39;11.68;;;5.60;;
51566;SDS011;37657;53.182;5.638;2024-02-21T00:58:05;18.13;;;7.13;;
51566;SDS011;37657;53.182;5.638;2024-02-21T01:00:31;12.82;;;6.38;;
51566;SDS011;37657;53.182;5.638;2024-02-21T01:02:57;14.60;;;6.05;;
51566;SDS011;37657;53.182;5.638;2024-02-21T01:05:22;23.73;;;6.28;;
51566;SDS011;37657;53.182;5.638;2024-02-21T01:07:48;13.27;;;6.40;;
51566;SDS011;37657;53.182;5.638;2024-02-21T01:10:13;13.07;;;8.10;;
51566;SDS011;37657;53.182;5.638;2024-02-21T01:12:39;17.65;;;6.38;;
51566;SDS011;37657;53.182;5.638;2024-02-21T01:15:05;11.20;;;5.43;;
51566;SDS011;37657;53.182;5.638;2024-02-21T01:17:30;10.90;;;6.90;;
51566;SDS011;37657;53.182;5.638;2024-02-21T01:19:56;11.85;;;5.50;;
51566;SDS011;37657;53.182;5.638;2024-02-21T01:22:21;13.02;;;6.55;;
51566;SDS011;37657;53.182;5.638;2024-02-21T01:24:47;17.15;;;7.63;;
51566;SDS011;37657;53.182;5.638;2024-02-21T01:27:13;12.10;;;6.47;;
51566;SDS011;37657;53.182;5.638;2024-02-21T01:29:38;14.00;;;5.40;;
51566;SDS011;37657;53.182;5.638;2024-02-21T01:32:04;18.90;;;6.38;;
51566;SDS011;37657;53.182;5.638;2024-02-21T01:34:30;15.77;;;6.40;;
51566;SDS011;37657;53.182;5.638;2024-02-21T01:36:55;16.00;;;6.03;;
51566;SDS011;37657;53.182;5.638;2024-02-21T01:39:21;14.75;;;7.18;;
51566;SDS011;37657;53.182;5.638;2024-02-21T01:41:46;11.10;;;5.65;;
51566;SDS011;37657;53.182;5.638;2024-02-21T01:44:12;15.27;;;6.20;;
51566;SDS011;37657;53.182;5.638;2024-02-21T01:46:38;13.65;;;7.60;;
51566;SDS011;37657;53.182;5.638;2024-02-21T01:49:04;15.48;;;7.07;;
51566;SDS011;37657;53.182;5.638;2024-02-21T01:51:30;13.23;;;6.20;;
51566;SDS011;37657;53.182;5.638;2024-02-21T01:53:56;24.45;;;7.78;;
51566;SDS011;37657;53.182;5.638;2024-02-21T01:56:22;9.93;;;5.20;;
51566;SDS011;37657;53.182;5.638;2024-02-21T01:58:49;11.38;;;5.10;;
51566;SDS011;37657;53.182;5.638;2024-02-21T02:01:16;17.38;;;6.88;;
51566;SDS011;37657;53.182;5.638;2024-02-21T02:03:42;31.23;;;6.60;;
51566;SDS011;37657;53.182;5.638;2024-02-21T02:06:10;19.80;;;6.05;;
51566;SDS011;37657;53.182;5.638;2024-02-21T02:08:35;12.93;;;6.50;;
51566;SDS011;37657;53.182;5.638;2024-02-21T02:11:01;12.18;;;6.07;;
51566;SDS011;37657;53.182;5.638;2024-02-21T02:13:28;25.73;;;6.68;;
51566;SDS011;37657;53.182;5.638;2024-02-21T02:15:54;10.57;;;6.53;;
51566;SDS011;37657;53.182;5.638;2024-02-21T02:18:20;12.73;;;5.38;;
51566;SDS011;37657;53.182;5.638;2024-02-21T02:20:46;32.35;;;6.22;;
51566;SDS011;37657;53.182;5.638;2024-02-21T02:23:18;16.35;;;5.68;;
51566;SDS011;37657;53.182;5.638;2024-02-21T02:25:45;11.45;;;5.78;;
51566;SDS011;37657;53.182;5.638;2024-02-21T02:28:14;11.23;;;6.28;;
51566;SDS011;37657;53.182;5.638;2024-02-21T02:30:40;29.95;;;8.25;;
51566;SDS011;37657;53.182;5.638;2024-02-21T02:33:05;14.00;;;6.32;;
51566;SDS011;37657;53.182;5.638;2024-02-21T02:35:31;17.08;;;6.85;;
51566;SDS011;37657;53.182;5.638;2024-02-21T02:37:58;15.23;;;6.05;;
51566;SDS011;37657;53.182;5.638;2024-02-21T02:40:23;24.77;;;6.50;;
51566;SDS011;37657;53.182;5.638;2024-02-21T02:42:50;23.92;;;7.22;;
51566;SDS011;37657;53.182;5.638;2024-02-21T02:45:16;12.70;;;6.43;;
51566;SDS011;37657;53.182;5.638;2024-02-21T02:47:44;10.80;;;6.72;;
51566;SDS011;37657;53.182;5.638;2024-02-21T02:50:11;9.27;;;4.88;;
51566;SDS011;37657;53.182;5.638;2024-02-21T02:52:37;23.33;;;7.80;;
51566;SDS011;37657;53.182;5.638;2024-02-21T02:55:03;14.55;;;6.32;;
51566;SDS011;37657;53.182;5.638;2024-02-21T02:57:30;14.15;;;7.65;;
51566;SDS011;37657;53.182;5.638;2024-02-21T02:59:55;14.00;;;8.35;;
51566;SDS011;37657;53.182;5.638;2024-02-21T03:02:21;18.77;;;6.55;;
51566;SDS011;37657;53.182;5.638;2024-02-21T03:04:47;11.00;;;5.35;;
51566;SDS011;37657;53.182;5.638;2024-02-21T03:07:13;17.27;;;7.47;;
51566;SDS011;37657;53.182;5.638;2024-02-21T03:09:40;19.02;;;6.13;;
51566;SDS011;37657;53.182;5.638;2024-02-21T03:12:05;33.78;;;7.63;;
51566;SDS011;37657;53.182;5.638;2024-02-21T03:14:32;14.93;;;6.93;;
51566;SDS011;37657;53.182;5.638;2024-02-21T03:16:58;11.07;;;4.88;;
51566;SDS011;37657;53.182;5.638;2024-02-21T03:19:24;10.48;;;6.28;;
51566;SDS011;37657;53.182;5.638;2024-02-21T03:21:50;21.25;;;7.85;;
51566;SDS011;37657;53.182;5.638;2024-02-21T03:24:16;14.55;;;6.65;;
51566;SDS011;37657;53.182;5.638;2024-02-21T03:26:42;13.25;;;5.93;;
51566;SDS011;37657;53.182;5.638;2024-02-21T03:29:08;18.15;;;7.03;;
51566;SDS011;37657;53.182;5.638;2024-02-21T03:31:37;12.98;;;5.53;;
51566;SDS011;37657;53.182;5.638;2024-02-21T03:34:02;16.73;;;8.32;;
51566;SDS011;37657;53.182;5.638;2024-02-21T03:36:28;17.00;;;8.05;;
51566;SDS011;37657;53.182;5.638;2024-02-21T03:38:54;11.38;;;6.60;;
51566;SDS011;37657;53.182;5.638;2024-02-21T03:41:20;15.93;;;6.88;;
51566;SDS011;37657;53.182;5.638;2024-02-21T03:43:46;16.08;;;6.88;;
51566;SDS011;37657;53.182;5.638;2024-02-21T03:46:12;38.58;;;8.85;;
51566;SDS011;37657;53.182;5.638;2024-02-21T03:48:38;12.77;;;6.65;;
51566;SDS011;37657;53.182;5.638;2024-02-21T03:51:03;19.67;;;8.45;;
51566;SDS011;37657;53.182;5.638;2024-02-21T03:53:30;16.10;;;6.22;;
51566;SDS011;37657;53.182;5.638;2024-02-21T03:55:55;12.90;;;6.40;;
51566;SDS011;37657;53.182;5.638;2024-02-21T03:58:21;12.30;;;5.93;;
51566;SDS011;37657;53.182;5.638;2024-02-21T04:00:47;17.42;;;5.88;;
51566;SDS011;37657;53.182;5.638;2024-02-21T04:03:13;16.45;;;6.90;;
51566;SDS011;37657;53.182;5.638;2024-02-21T04:05:38;14.60;;;6.43;;
51566;SDS011;37657;53.182;5.638;2024-02-21T04:08:04;8.85;;;5.10;;
51566;SDS011;37657;53.182;5.638;2024-02-21T04:10:31;15.85;;;6.32;;
51566;SDS011;37657;53.182;5.638;2024-02-21T04:12:56;9.25;;;4.57;;
51566;SDS011;37657;53.182;5.638;2024-02-21T04:15:22;14.23;;;7.05;;
51566;SDS011;37657;53.182;5.638;2024-02-21T04:17:48;12.50;;;5.90;;
51566;SDS011;37657;53.182;5.638;2024-02-21T04:20:14;10.18;;;4.75;;
51566;SDS011;37657;53.182;5.638;2024-02-21T04:22:44;17.77;;;6.60;;
51566;SDS011;37657;53.182;5.638;2024-02-21T04:25:10;12.63;;;6.93;;
51566;SDS011;37657;53.182;5.638;2024-02-21T04:27:36;14.85;;;5.75;;
51566;SDS011;37657;53.182;5.638;2024-02-21T04:30:05;14.70;;;6.00;;
51566;SDS011;37657;53.182;5.638;2024-02-21T04:32:32;22.88;;;6.68;;
51566;SDS011;37657;53.182;5.638;2024-02-21T04:34:57;10.82;;;4.35;;
51566;SDS011;37657;53.182;5.638;2024-02-21T04:37:23;15.60;;;5.90;;
51566;SDS011;37657;53.182;5.638;2024-02-21T04:39:49;11.27;;;5.43;;
51566;SDS011;37657;53.182;5.638;2024-02-21T04:42:16;10.57;;;5.47;;
51566;SDS011;37657;53.182;5.638;2024-02-21T04:44:41;14.07;;;6.18;;
51566;SDS011;37657;53.182;5.638;2024-02-21T04:47:07;11.70;;;5.32;;
51566;SDS011;37657;53.182;5.638;2024-02-21T04:49:33;13.38;;;6.07;;
51566;SDS011;37657;53.182;5.638;2024-02-21T04:51:58;20.33;;;8.35;;
51566;SDS011;37657;53.182;5.638;2024-02-21T04:54:24;12.30;;;5.50;;
51566;SDS011;37657;53.182;5.638;2024-02-21T04:56:50;12.15;;;6.65;;
51566;SDS011;37657;53.182;5.638;2024-02-21T04:59:16;14.32;;;5.88;;
51566;SDS011;37657;53.182;5.638;2024-02-21T05:01:42;15.43;;;5.47;;
51566;SDS011;37657;53.182;5.638;2024-02-21T05:04:08;17.00;;;6.65;;
51566;SDS011;37657;53.182;5.638;2024-02-21T05:06:37;13.38;;;4.88;;
51566;SDS011;37657;53.182;5.638;2024-02-21T05:09:04;18.23;;;7.13;;
51566;SDS011;37657;53.182;5.638;2024-02-21T05:11:30;13.45;;;5.53;;
51566;SDS011;37657;53.182;5.638;2024-02-21T05:13:55;11.95;;;5.78;;
51566;SDS011;37657;53.182;5.638;2024-02-21T05:16:21;13.15;;;5.75;;
51566;SDS011;37657;53.182;5.638;2024-02-21T05:18:47;13.55;;;5.05;;
51566;SDS011;37657;53.182;5.638;2024-02-21T05:21:12;10.98;;;5.32;;
51566;SDS011;37657;53.182;5.638;2024-02-21T05:23:38;12.82;;;6.68;;
51566;SDS011;37657;53.182;5.638;2024-02-21T05:26:06;11.00;;;5.32;;
51566;SDS011;37657;53.182;5.638;2024-02-21T05:28:32;24.63;;;6.70;;
51566;SDS011;37657;53.182;5.638;2024-02-21T05:30:58;13.02;;;6.40;;
51566;SDS011;37657;53.182;5.638;2024-02-21T05:33:24;10.23;;;5.25;;
51566;SDS011;37657;53.182;5.638;2024-02-21T05:35:50;16.98;;;7.03;;
51566;SDS011;37657;53.182;5.638;2024-02-21T05:38:16;15.02;;;6.20;;
51566;SDS011;37657;53.182;5.638;2024-02-21T05:40:42;23.92;;;7.35;;
51566;SDS011;37657;53.182;5.638;2024-02-21T05:43:09;15.10;;;5.28;;
51566;SDS011;37657;53.182;5.638;2024-02-21T05:45:35;9.15;;;4.60;;
51566;SDS011;37657;53.182;5.638;2024-02-21T05:48:01;12.15;;;6.40;;
51566;SDS011;37657;53.182;5.638;2024-02-21T05:50:27;15.23;;;6.10;;
51566;SDS011;37657;53.182;5.638;2024-02-21T05:52:54;18.63;;;5.70;;
51566;SDS011;37657;53.182;5.638;2024-02-21T05:55:20;11.57;;;5.18;;
51566;SDS011;37657;53.182;5.638;2024-02-21T05:57:46;9.00;;;4.68;;
51566;SDS011;37657;53.182;5.638;2024-02-21T06:00:12;10.80;;;6.03;;
51566;SDS011;37657;53.182;5.638;2024-02-21T06:02:38;13.60;;;6.38;;
51566;SDS011;37657;53.182;5.638;2024-02-21T06:05:05;14.48;;;5.90;;
51566;SDS011;37657;53.182;5.638;2024-02-21T06:07:32;15.52;;;4.95;;
51566;SDS011;37657;53.182;5.638;2024-02-21T06:09:58;13.32;;;5.97;;
51566;SDS011;37657;53.182;5.638;2024-02-21T06:12:25;12.73;;;5.55;;
51566;SDS011;37657;53.182;5.638;2024-02-21T06:14:50;14.35;;;6.07;;
51566;SDS011;37657;53.182;5.638;2024-02-21T06:17:16;14.35;;;6.57;;
51566;SDS011;37657;53.182;5.638;2024-02-21T06:19:42;10.55;;;5.85;;
51566;SDS011;37657;53.182;5.638;2024-02-21T06:22:08;13.55;;;6.78;;
51566;SDS011;37657;53.182;5.638;2024-02-21T06:24:35;13.50;;;6.72;;
51566;SDS011;37657;53.182;5.638;2024-02-21T06:27:01;15.63;;;6.70;;
51566;SDS011;37657;53.182;5.638;2024-02-21T06:29:31;16.88;;;7.68;;
51566;SDS011;37657;53.182;5.638;2024-02-21T06:31:57;15.38;;;6.60;;
51566;SDS011;37657;53.182;5.638;2024-02-21T06:34:23;20.95;;;6.22;;
51566;SDS011;37657;53.182;5.638;2024-02-21T06:36:49;16.33;;;6.90;;
51566;SDS011;37657;53.182;5.638;2024-02-21T06:39:15;37.22;;;8.13;;
51566;SDS011;37657;53.182;5.638;2024-02-21T06:41:41;9.57;;;5.35;;
51566;SDS011;37657;53.182;5.638;2024-02-21T06:44:06;14.68;;;6.25;;
51566;SDS011;37657;53.182;5.638;2024-02-21T06:46:32;13.18;;;6.10;;
51566;SDS011;37657;53.182;5.638;2024-02-21T06:49:01;15.38;;;7.25;;
51566;SDS011;37657;53.182;5.638;2024-02-21T06:51:28;16.55;;;6.85;;
51566;SDS011;37657;53.182;5.638;2024-02-21T06:53:54;34.47;;;8.20;;
51566;SDS011;37657;53.182;5.638;2024-02-21T06:56:20;17.15;;;7.32;;
51566;SDS011;37657;53.182;5.638;2024-02-21T06:58:54;12.10;;;6.65;;
51566;SDS011;37657;53.182;5.638;2024-02-21T07:01:20;20.27;;;6.43;;
51566;SDS011;37657;53.182;5.638;2024-02-21T07:03:45;15.02;;;7.50;;
51566;SDS011;37657;53.182;5.638;2024-02-21T07:06:11;13.32;;;6.95;;
51566;SDS011;37657;53.182;5.638;2024-02-21T07:08:37;22.25;;;8.40;;
51566;SDS011;37657;53.182;5.638;2024-02-21T07:11:04;26.55;;;10.10;;
51566;SDS011;37657;53.182;5.638;2024-02-21T07:13:29;14.18;;;7.82;;
51566;SDS011;37657;53.182;5.638;2024-02-21T07:15:55;17.20;;;9.15;;
51566;SDS011;37657;53.182;5.638;2024-02-21T07:18:21;17.15;;;8.38;;
51566;SDS011;37657;53.182;5.638;2024-02-21T07:20:46;19.65;;;8.13;;
51566;SDS011;37657;53.182;5.638;2024-02-21T07:23:12;20.73;;;8.90;;
51566;SDS011;37657;53.182;5.638;2024-02-21T07:25:38;19.92;;;8.85;;
51566;SDS011;37657;53.182;5.638;2024-02-21T07:28:05;18.17;;;8.32;;
51566;SDS011;37657;53.182;5.638;2024-02-21T07:30:31;15.30;;;8.15;;
51566;SDS011;37657;53.182;5.638;2024-02-21T07:32:57;15.50;;;7.82;;
51566;SDS011;37657;53.182;5.638;2024-02-21T07:35:22;17.10;;;9.43;;
51566;SDS011;37657;53.182;5.638;2024-02-21T07:37:48;15.65;;;8.88;;
51566;SDS011;37657;53.182;5.638;2024-02-21T07:40:19;20.63;;;13.18;;
51566;SDS011;37657;53.182;5.638;2024-02-21T07:42:45;23.70;;;10.63;;
51566;SDS011;37657;53.182;5.638;2024-02-21T07:45:11;15.57;;;9.65;;
51566;SDS011;37657;53.182;5.638;2024-02-21T07:47:36;20.52;;;9.05;;
51566;SDS011;37657;53.182;5.638;2024-02-21T07:50:03;21.60;;;10.50;;
51566;SDS011;37657;53.182;5.638;2024-02-21T07:52:29;21.73;;;9.88;;
51566;SDS011;37657;53.182;5.638;2024-02-21T07:54:54;26.77;;;8.18;;
51566;SDS011;37657;53.182;5.638;2024-02-21T07:57:20;40.38;;;11.13;;
51566;SDS011;37657;53.182;5.638;2024-02-21T07:59:46;17.13;;;9.57;;
51566;SDS011;37657;53.182;5.638;2024-02-21T08:02:16;25.92;;;10.07;;
51566;SDS011;37657;53.182;5.638;2024-02-21T08:04:41;13.68;;;9.30;;
51566;SDS011;37657;53.182;5.638;2024-02-21T08:07:07;19.38;;;9.35;;
51566;SDS011;37657;53.182;5.638;2024-02-21T08:09:33;15.18;;;10.48;;
51566;SDS011;37657;53.182;5.638;2024-02-21T08:11:59;24.00;;;10.88;;
51566;SDS011;37657;53.182;5.638;2024-02-21T08:14:25;22.73;;;10.73;;
51566;SDS011;37657;53.182;5.638;2024-02-21T08:16:51;17.25;;;11.10;;
51566;SDS011;37657;53.182;5.638;2024-02-21T08:19:20;23.23;;;10.93;;
51566;SDS011;37657;53.182;5.638;2024-02-21T08:21:47;37.33;;;11.32;;
51566;SDS011;37657;53.182;5.638;2024-02-21T08:24:13;15.88;;;9.23;;
51566;SDS011;37657;53.182;5.638;2024-02-21T08:26:46;13.43;;;9.25;;
51566;SDS011;37657;53.182;5.638;2024-02-21T08:29:11;14.02;;;8.38;;
51566;SDS011;37657;53.182;5.638;2024-02-21T08:31:37;11.88;;;6.97;;
51566;SDS011;37657;53.182;5.638;2024-02-21T08:34:03;18.45;;;8.23;;
51566;SDS011;37657;53.182;5.638;2024-02-21T08:36:35;21.25;;;8.95;;
51566;SDS011;37657;53.182;5.638;2024-02-21T08:39:02;12.05;;;6.97;;
51566;SDS011;37657;53.182;5.638;2024-02-21T08:41:33;10.95;;;6.57;;
51566;SDS011;37657;53.182;5.638;2024-02-21T08:43:59;20.00;;;9.45;;
51566;SDS011;37657;53.182;5.638;2024-02-21T08:46:24;15.80;;;7.80;;
51566;SDS011;37657;53.182;5.638;2024-02-21T08:48:51;13.55;;;6.95;;
51566;SDS011;37657;53.182;5.638;2024-02-21T08:51:17;13.20;;;7.82;;
51566;SDS011;37657;53.182;5.638;2024-02-21T08:53:46;16.15;;;7.88;;
51566;SDS011;37657;53.182;5.638;2024-02-21T08:56:12;11.57;;;7.03;;
51566;SDS011;37657;53.182;5.638;2024-02-21T08:58:38;16.35;;;10.18;;
51566;SDS011;37657;53.182;5.638;2024-02-21T09:01:05;15.57;;;10.35;;
51566;SDS011;37657;53.182;5.638;2024-02-21T09:03:34;16.50;;;9.48;;
51566;SDS011;37657;53.182;5.638;2024-02-21T09:06:04;16.92;;;10.02;;
51566;SDS011;37657;53.182;5.638;2024-02-21T09:08:30;16.10;;;10.45;;
51566;SDS011;37657;53.182;5.638;2024-02-21T09:10:56;21.23;;;10.27;;
51566;SDS011;37657;53.182;5.638;2024-02-21T09:13:22;17.27;;;11.95;;
51566;SDS011;37657;53.182;5.638;2024-02-21T09:15:49;27.35;;;12.75;;
51566;SDS011;37657;53.182;5.638;2024-02-21T09:18:15;14.30;;;12.60;;
51566;SDS011;37657;53.182;5.638;2024-02-21T09:20:41;18.02;;;13.20;;
51566;SDS011;37657;53.182;5.638;2024-02-21T09:23:07;20.73;;;15.65;;
51566;SDS011;37657;53.182;5.638;2024-02-21T09:25:33;15.85;;;13.20;;
51566;SDS011;37657;53.182;5.638;2024-02-21T09:28:00;21.70;;;15.05;;
51566;SDS011;37657;53.182;5.638;2024-02-21T09:30:27;24.67;;;16.60;;
51566;SDS011;37657;53.182;5.638;2024-02-21T09:32:53;22.20;;;16.15;;
51566;SDS011;37657;53.182;5.638;2024-02-21T09:35:18;30.02;;;15.82;;
51566;SDS011;37657;53.182;5.638;2024-02-21T09:37:44;19.55;;;17.52;;
51566;SDS011;37657;53.182;5.638;2024-02-21T09:42:41;28.40;;;17.20;;
51566;SDS011;37657;53.182;5.638;2024-02-21T09:45:20;29.40;;;18.40;;
51566;SDS011;37657;53.182;5.638;2024-02-21T09:50:34;15.60;;;14.07;;
51566;SDS011;37657;53.182;5.638;2024-02-21T09:53:01;22.05;;;16.38;;
51566;SDS011;37657;53.182;5.638;2024-02-21T09:55:29;30.20;;;18.58;;
51566;SDS011;37657;53.182;5.638;2024-02-21T09:57:59;26.80;;;18.45;;
51566;SDS011;37657;53.182;5.638;2024-02-21T10:00:26;20.73;;;16.45;;
51566;SDS011;37657;53.182;5.638;2024-02-21T10:02:53;21.70;;;16.40;;
51566;SDS011;37657;53.182;5.638;2024-02-21T10:05:19;23.52;;;18.73;;
51566;SDS011;37657;53.182;5.638;2024-02-21T10:07:44;19.52;;;17.02;;
51566;SDS011;37657;53.182;5.638;2024-02-21T10:10:10;25.35;;;18.42;;
51566;SDS011;37657;53.182;5.638;2024-02-21T10:12:36;27.38;;;19.20;;
51566;SDS011;37657;53.182;5.638;2024-02-21T10:15:05;25.25;;;17.30;;
51566;SDS011;37657;53.182;5.638;2024-02-21T10:17:34;23.67;;;17.33;;
51566;SDS011;37657;53.182;5.638;2024-02-21T10:20:08;22.90;;;18.60;;
51566;SDS011;37657;53.182;5.638;2024-02-21T10:22:34;20.33;;;18.08;;
51566;SDS011;37657;53.182;5.638;2024-02-21T10:25:08;22.13;;;16.52;;
51566;SDS011;37657;53.182;5.638;2024-02-21T10:27:34;22.77;;;17.25;;
51566;SDS011;37657;53.182;5.638;2024-02-21T10:30:00;25.17;;;19.27;;
51566;SDS011;37657;53.182;5.638;2024-02-21T10:32:25;21.85;;;19.58;;
51566;SDS011;37657;53.182;5.638;2024-02-21T10:35:00;21.67;;;17.25;;
51566;SDS011;37657;53.182;5.638;2024-02-21T10:37:28;19.67;;;16.80;;
51566;SDS011;37657;53.182;5.638;2024-02-21T10:39:54;22.35;;;16.42;;
51566;SDS011;37657;53.182;5.638;2024-02-21T10:42:21;23.15;;;18.10;;
51566;SDS011;37657;53.182;5.638;2024-02-21T10:44:46;19.98;;;17.17;;
51566;SDS011;37657;53.182;5.638;2024-02-21T10:47:18;19.80;;;17.75;;
51566;SDS011;37657;53.182;5.638;2024-02-21T10:49:49;23.65;;;19.30;;
51566;SDS011;37657;53.182;5.638;2024-02-21T10:54:55;18.20;;;15.95;;
51566;SDS011;37657;53.182;5.638;2024-02-21T10:57:25;30.33;;;19.88;;
51566;SDS011;37657;53.182;5.638;2024-02-21T10:59:52;17.77;;;15.80;;
51566;SDS011;37657;53.182;5.638;2024-02-21T11:02:19;23.52;;;17.88;;
51566;SDS011;37657;53.182;5.638;2024-02-21T11:04:45;21.52;;;17.38;;
51566;SDS011;37657;53.182;5.638;2024-02-21T11:07:12;23.00;;;20.08;;
51566;SDS011;37657;53.182;5.638;2024-02-21T11:09:39;23.05;;;20.48;;
51566;SDS011;37657;53.182;5.638;2024-02-21T11:12:05;28.77;;;22.05;;
51566;SDS011;37657;53.182;5.638;2024-02-21T11:14:32;31.52;;;18.30;;
51566;SDS011;37657;53.182;5.638;2024-02-21T11:17:01;21.33;;;18.13;;
51566;SDS011;37657;53.182;5.638;2024-02-21T11:19:28;22.50;;;18.63;;
51566;SDS011;37657;53.182;5.638;2024-02-21T11:21:56;19.45;;;15.60;;
51566;SDS011;37657;53.182;5.638;2024-02-21T11:24:26;24.08;;;19.67;;
51566;SDS011;37657;53.182;5.638;2024-02-21T11:26:53;21.35;;;18.80;;
51566;SDS011;37657;53.182;5.638;2024-02-21T11:29:23;23.45;;;19.17;;
51566;SDS011;37657;53.182;5.638;2024-02-21T11:31:52;25.15;;;19.70;;
51566;SDS011;37657;53.182;5.638;2024-02-21T11:34:19;20.60;;;18.73;;
51566;SDS011;37657;53.182;5.638;2024-02-21T11:36:48;25.70;;;22.63;;
51566;SDS011;37657;53.182;5.638;2024-02-21T11:39:33;31.88;;;22.98;;
51566;SDS011;37657;53.182;5.638;2024-02-21T11:44:30;23.00;;;20.55;;
51566;SDS011;37657;53.182;5.638;2024-02-21T11:46:56;22.67;;;20.10;;
51566;SDS011;37657;53.182;5.638;2024-02-21T11:49:21;23.40;;;21.13;;
51566;SDS011;37657;53.182;5.638;2024-02-21T11:51:57;20.70;;;17.67;;
51566;SDS011;37657;53.182;5.638;2024-02-21T11:54:24;28.45;;;20.40;;
51566;SDS011;37657;53.182;5.638;2024-02-21T11:56:49;28.92;;;18.95;;
51566;SDS011;37657;53.182;5.638;2024-02-21T11:59:15;30.95;;;22.10;;
51566;SDS011;37657;53.182;5.638;2024-02-21T12:01:41;24.88;;;20.65;;
51566;SDS011;37657;53.182;5.638;2024-02-21T12:04:06;22.17;;;18.58;;
51566;SDS011;37657;53.182;5.638;2024-02-21T12:06:33;24.02;;;18.98;;
51566;SDS011;37657;53.182;5.638;2024-02-21T12:08:59;21.33;;;19.05;;
51566;SDS011;37657;53.182;5.638;2024-02-21T12:11:24;21.02;;;18.77;;
51566;SDS011;37657;53.182;5.638;2024-02-21T12:14:03;29.73;;;22.02;;
51566;SDS011;37657;53.182;5.638;2024-02-21T12:16:33;19.85;;;17.30;;
51566;SDS011;37657;53.182;5.638;2024-02-21T12:18:59;24.80;;;20.60;;
51566;SDS011;37657;53.182;5.638;2024-02-21T12:21:25;19.63;;;17.75;;
51566;SDS011;37657;53.182;5.638;2024-02-21T12:23:54;19.02;;;15.35;;
51566;SDS011;37657;53.182;5.638;2024-02-21T12:26:20;19.27;;;17.15;;
51566;SDS011;37657;53.182;5.638;2024-02-21T12:28:46;20.67;;;15.27;;
51566;SDS011;37657;53.182;5.638;2024-02-21T12:31:12;18.20;;;16.42;;
51566;SDS011;37657;53.182;5.638;2024-02-21T12:33:38;23.45;;;16.80;;
51566;SDS011;37657;53.182;5.638;2024-02-21T12:36:04;19.60;;;16.15;;
51566;SDS011;37657;53.182;5.638;2024-02-21T12:38:30;21.23;;;14.60;;
51566;SDS011;37657;53.182;5.638;2024-02-21T12:40:55;19.08;;;14.95;;
51566;SDS011;37657;53.182;5.638;2024-02-21T12:43:22;16.52;;;13.85;;
51566;SDS011;37657;53.182;5.638;2024-02-21T12:45:48;19.15;;;14.90;;
51566;SDS011;37657;53.182;5.638;2024-02-21T12:48:14;16.38;;;13.75;;
51566;SDS011;37657;53.182;5.638;2024-02-21T12:50:40;32.45;;;13.20;;
51566;SDS011;37657;53.182;5.638;2024-02-21T12:53:18;15.75;;;11.70;;
51566;SDS011;37657;53.182;5.638;2024-02-21T12:55:47;16.75;;;13.20;;
51566;SDS011;37657;53.182;5.638;2024-02-21T12:58:13;13.40;;;11.98;;
51566;SDS011;37657;53.182;5.638;2024-02-21T13:00:39;13.38;;;11.95;;
51566;SDS011;37657;53.182;5.638;2024-02-21T13:03:05;14.00;;;12.52;;
51566;SDS011;37657;53.182;5.638;2024-02-21T13:05:31;12.88;;;10.98;;
51566;SDS011;37657;53.182;5.638;2024-02-21T13:07:57;11.90;;;10.43;;
51566;SDS011;37657;53.182;5.638;2024-02-21T13:10:23;15.80;;;10.90;;
51566;SDS011;37657;53.182;5.638;2024-02-21T13:12:50;14.55;;;10.75;;
51566;SDS011;37657;53.182;5.638;2024-02-21T13:15:16;17.60;;;12.95;;
51566;SDS011;37657;53.182;5.638;2024-02-21T13:17:43;10.43;;;8.77;;
51566;SDS011;37657;53.182;5.638;2024-02-21T13:20:09;12.93;;;10.30;;
51566;SDS011;37657;53.182;5.638;2024-02-21T13:22:36;12.40;;;11.13;;
51566;SDS011;37657;53.182;5.638;2024-02-21T13:25:02;14.02;;;11.40;;
51566;SDS011;37657;53.182;5.638;2024-02-21T13:27:28;12.40;;;9.40;;
51566;SDS011;37657;53.182;5.638;2024-02-21T13:29:53;11.05;;;9.27;;
51566;SDS011;37657;53.182;5.638;2024-02-21T13:32:19;11.43;;;8.65;;
51566;SDS011;37657;53.182;5.638;2024-02-21T13:34:45;11.23;;;9.32;;
51566;SDS011;37657;53.182;5.638;2024-02-21T13:37:10;17.25;;;10.50;;
51566;SDS011;37657;53.182;5.638;2024-02-21T13:39:36;12.05;;;10.05;;
51566;SDS011;37657;53.182;5.638;2024-02-21T13:42:02;9.32;;;8.30;;
51566;SDS011;37657;53.182;5.638;2024-02-21T13:44:30;11.15;;;9.20;;
51566;SDS011;37657;53.182;5.638;2024-02-21T13:46:56;13.95;;;9.73;;
51566;SDS011;37657;53.182;5.638;2024-02-21T13:49:22;11.15;;;9.20;;
51566;SDS011;37657;53.182;5.638;2024-02-21T13:51:48;14.43;;;11.43;;
51566;SDS011;37657;53.182;5.638;2024-02-21T13:54:13;13.07;;;10.15;;
51566;SDS011;37657;53.182;5.638;2024-02-21T13:56:44;12.48;;;10.52;;
51566;SDS011;37657;53.182;5.638;2024-02-21T13:59:11;17.55;;;12.52;;
51566;SDS011;37657;53.182;5.638;2024-02-21T14:01:38;15.43;;;10.40;;
51566;SDS011;37657;53.182;5.638;2024-02-21T14:04:04;13.55;;;10.65;;
51566;SDS011;37657;53.182;5.638;2024-02-21T14:06:30;16.52;;;11.45;;
51566;SDS011;37657;53.182;5.638;2024-02-21T14:08:56;13.70;;;10.38;;
51566;SDS011;37657;53.182;5.638;2024-02-21T14:11:22;9.63;;;8.40;;
51566;SDS011;37657;53.182;5.638;2024-02-21T14:13:48;11.32;;;9.07;;
51566;SDS011;37657;53.182;5.638;2024-02-21T14:16:13;14.20;;;11.35;;
51566;SDS011;37657;53.182;5.638;2024-02-21T14:18:42;14.13;;;10.65;;
51566;SDS011;37657;53.182;5.638;2024-02-21T14:21:08;12.50;;;10.98;;
51566;SDS011;37657;53.182;5.638;2024-02-21T14:23:37;10.10;;;9.10;;
51566;SDS011;37657;53.182;5.638;2024-02-21T14:26:03;10.48;;;9.45;;
51566;SDS011;37657;53.182;5.638;2024-02-21T14:28:29;13.20;;;10.60;;
51566;SDS011;37657;53.182;5.638;2024-02-21T14:30:55;11.77;;;9.18;;
51566;SDS011;37657;53.182;5.638;2024-02-21T14:33:26;11.05;;;9.48;;
51566;SDS011;37657;53.182;5.638;2024-02-21T14:35:52;11.00;;;9.25;;
51566;SDS011;37657;53.182;5.638;2024-02-21T14:38:18;11.77;;;9.57;;